Stations météo

Publicité
Le Puy, France (7471): Température de l'air & dewpoint: 14.04.2019 14:00:00 - 20.04.2019 14:00:00 (CEST)Le Puy, France (7471): Température de l'air 5cm: 14.04.2019 14:00:00 - 20.04.2019 14:00:00 (CEST)Le Puy, France (7471): Température de l'air -20cm & Température de l'air -100cm: 14.04.2019 14:00:00 - 20.04.2019 14:00:00 (CEST)Le Puy, France (7471): Vitesse du vent & gusts: 14.04.2019 14:00:00 - 20.04.2019 14:00:00 (CEST)Le Puy, France (7471): Direction du vent: 14.04.2019 14:00:00 - 20.04.2019 14:00:00 (CEST)Le Puy, France (7471): visibility: 14.04.2019 14:00:00 - 20.04.2019 14:00:00 (CEST)Le Puy, France (7471): Ensoleillement: 14.04.2019 14:00:00 - 20.04.2019 14:00:00 (CEST)Le Puy, France (7471): Quantités de précipitations: 14.04.2019 14:00:00 - 20.04.2019 14:00:00 (CEST)
Date & Time tt [°C] td [°C] tt 5cm [°C] tt -20cm [°C] tt -100cm [°C] ff [km/h] ff [knt] fx [km/h] fx [knt] dd vv [km] sd [min] rr [mm]
20.04.2019 14:00:00 17,7 4,3 21,6 9,5 7,8 10 6 25 14 N 20 49 0,0
20.04.2019 13:00:00 17,0 4,6 20,4 9,5 7,8 8 4 22 12 NNW 20 38 0,0
20.04.2019 12:00:00 16,7 3,4 21,2 9,5 7,7 5 3 14 8 ENE 19 43 0,0
20.04.2019 11:00:00 13,8 3,8 15,9 9,6 7,8 3 1 6 4 E 20 32 0,0
20.04.2019 10:00:00 11,4 3,4 10,4 9,7 7,8 2 1 7 4 NE 20 48 0,0
20.04.2019 09:00:00 6,0 1,5 4,6 9,8 7,7 0 0 4 2 N 20 11 0,0
20.04.2019 08:00:00 3,2 0,3 0,9 10,0 7,8 0 0 6 3 N 20 7 0,0
20.04.2019 07:00:00 2,5 -0,3 -0,3 10,1 7,8 4 2 6 4 SW 20 0 0,0
20.04.2019 06:00:00 2,7 -0,2 -0,3 10,2 7,8 0 0 7 4 N 20 0 0,0
20.04.2019 05:00:00 3,7 0,4 0,2 10,3 7,8 0 0 7 4 N 20 0 0,0
20.04.2019 04:00:00 4,9 1,0 1,4 10,4 7,8 6 4 9 5 SW 20 0 0,0
20.04.2019 03:00:00 5,9 1,4 1,2 10,4 7,8 7 4 10 6 SSW 20 0 0,0
20.04.2019 02:00:00 5,1 0,7 1,5 10,5 7,8 0 0 8 4 N 20 0 0,0
20.04.2019 01:00:00 7,4 1,2 3,5 10,5 7,7 3 2 6 3 W 20 0 0,0
20.04.2019 00:00:00 9,1 1,5 4,6 10,4 7,7 2 1 10 5 NNW 20 0 0,0
19.04.2019 23:00:00 9,2 0,9 4,3 10,4 7,7 0 0 7 4 N 20 0 0,0
19.04.2019 22:00:00 11,1 0,5 7,2 10,3 7,7 3 2 17 9 SW 20 0 0,0
19.04.2019 21:00:00 12,6 0,3 10,8 10,1 7,7 9 5 14 8 SSW 20 0 0,0
19.04.2019 20:00:00 16,0 1,3 16,2 9,9 7,7 7 4 16 9 S 20 60 0,0
19.04.2019 19:00:00 18,7 -0,2 22,0 9,7 7,7 7 4 19 10 S 20 60 0,0
19.04.2019 18:00:00 19,2 -0,3 23,7 9,5 7,7 13 7 26 14 SSE 20 60 0,0
19.04.2019 17:00:00 19,2 -0,8 25,2 9,3 7,7 14 8 28 15 SSE 20 60 0,0
19.04.2019 16:00:00 19,8 0,7 26,6 9,2 7,7 14 8 30 16 S 20 60 0,0
19.04.2019 15:00:00 19,5 -0,5 26,2 9,0 7,7 15 8 37 20 SSE 20 60 0,0
19.04.2019 14:00:00 19,0 -0,4 24,7 9,0 7,7 22 12 47 26 SSE 20 60 0,0
19.04.2019 13:00:00 18,0 0,1 21,2 9,0 7,7 21 11 45 24 SSE 20 60 0,0
19.04.2019 12:00:00 16,7 0,3 21,8 9,0 7,7 22 12 44 24 SSE 20 60 0,0
19.04.2019 11:00:00 16,2 -0,1 20,7 9,0 7,7 26 14 47 25 SSE 20 60 0,0
19.04.2019 10:00:00 15,2 0,6 17,6 9,1 7,7 21 12 39 21 SSE 20 60 0,0
19.04.2019 09:00:00 13,5 1,8 12,8 9,2 7,7 12 6 18 10 SE 20 60 0,0
19.04.2019 08:00:00 11,1 1,3 7,0 9,3 7,7 8 4 24 13 SSE 20 24 0,0
19.04.2019 07:00:00 9,9 0,5 5,3 9,4 7,7 9 5 25 14 SSE 20 0 0,0
19.04.2019 06:00:00 9,0 0,2 5,0 9,5 7,7 6 3 14 7 SSE 20 0 0,0
19.04.2019 05:00:00 9,8 -0,4 5,6 9,6 7,7 5 3 22 12 SSE 20 0 0,0
19.04.2019 04:00:00 10,1 -1,0 4,7 9,7 7,7 7 4 21 12 SSE 20 0 0,0
19.04.2019 03:00:00 10,0 -2,0 3,9 9,7 7,7 7 4 23 12 SSE 20 0 0,0
19.04.2019 02:00:00 7,9 -1,4 3,7 9,8 7,7 3 1 8 5 SSE 20 0 0,0
19.04.2019 01:00:00 8,2 -0,8 3,5 9,8 7,7 0 0 9 5 N 20 0 0,0
19.04.2019 00:00:00 8,1 1,0 4,0 9,8 7,7 0 0 14 8 N 20 0 0,0
18.04.2019 23:00:00 8,8 1,7 3,6 9,8 7,7 6 3 14 8 SSE 20 0 0,0
18.04.2019 22:00:00 8,1 1,2 4,6 9,7 7,7 2 1 13 7 S 20 0 0,0
18.04.2019 21:00:00 10,2 1,3 7,1 9,6 7,7 6 3 21 11 S 20 11 0,0
18.04.2019 20:00:00 13,3 1,6 12,7 9,5 7,7 13 7 34 19 SSE 20 31 0,0
18.04.2019 19:00:00 14,5 0,7 15,5 9,3 7,7 19 10 42 23 S 20 4 0,0
18.04.2019 18:00:00 15,2 1,3 16,8 9,1 7,6 19 10 43 23 SSE 20 4 0,0
18.04.2019 17:00:00 16,5 -0,3 20,1 9,0 7,7 24 13 51 27 SSE 20 60 0,0
18.04.2019 16:00:00 17,1 1,1 21,8 8,9 7,7 23 13 54 29 SSE 20 60 0,0
18.04.2019 15:00:00 17,6 1,1 23,4 8,8 7,7 25 13 51 27 S 20 60 0,0
18.04.2019 14:00:00 17,3 2,5 22,2 8,7 7,7 27 15 54 29 SSE 20 60 0,0
18.04.2019 13:00:00 17,1 2,7 21,8 8,7 7,6 28 15 57 31 SSE 20 60 0,0
18.04.2019 12:00:00 16,2 1,1 20,3 8,7 7,6 32 17 57 31 SSE 20 60 0,0
18.04.2019 11:00:00 15,2 1,7 18,4 8,8 7,6 28 15 55 30 SSE 20 60 0,0
18.04.2019 10:00:00 14,1 -0,8 16,5 8,9 7,7 26 14 48 26 SSE 20 60 0,0
18.04.2019 09:00:00 12,4 0,5 10,8 8,9 7,6 14 8 36 19 SSE 20 60 0,0
18.04.2019 08:00:00 9,3 0,7 5,9 9,0 7,6 14 8 27 15 SSE 20 5 0,0
18.04.2019 07:00:00 8,1 0,1 4,5 9,1 7,7 11 6 23 13 SSE 20 0 0,0
18.04.2019 06:00:00 8,0 0,5 5,9 9,1 7,7 9 5 34 18 SSE 20 0 0,0
18.04.2019 05:00:00 8,9 -0,2 7,6 9,2 7,7 16 8 35 19 SSE 20 0 0,0
18.04.2019 04:00:00 8,7 0,6 7,2 9,2 7,7 11 6 33 18 SSE 20 0 0,0
18.04.2019 03:00:00 9,2 1,1 6,7 9,3 7,7 18 10 39 21 SSE 20 0 0,0
18.04.2019 02:00:00 8,9 1,3 7,5 9,3 7,6 9 5 32 18 SE 20 0 0,0
18.04.2019 01:00:00 9,5 0,9 7,7 9,3 7,7 18 10 34 18 SSE 20 0 0,0
18.04.2019 00:00:00 9,3 1,4 7,2 9,2 7,6 10 6 27 14 SSE 20 0 0,0
17.04.2019 23:00:00 9,4 0,8 7,8 9,2 7,6 10 6 25 14 SE 20 0 0,0
17.04.2019 22:00:00 10,0 3,0 7,6 9,1 7,7 11 6 20 11 SSE 20 0 0,0
17.04.2019 21:00:00 9,7 2,3 8,0 9,0 7,6 4 2 17 9 S 20 0 0,0
17.04.2019 20:00:00 11,8 1,4 10,8 8,8 7,6 9 5 26 14 SSE 20 0 0,0
17.04.2019 19:00:00 13,4 3,2 13,9 8,6 7,6 14 8 31 17 SSE 20 16 0,0
17.04.2019 18:00:00 14,7 4,1 16,8 8,4 7,6 19 10 36 19 SSE 20 32 0,0
17.04.2019 17:00:00 15,4 3,8 19,4 8,2 7,6 17 9 42 23 SSE 20 60 0,0
17.04.2019 16:00:00 16,6 4,3 20,3 8,1 7,6 19 10 39 21 S 20 60 0,0
17.04.2019 15:00:00 15,6 3,7 20,4 7,9 7,6 21 12 38 20 SSE 20 57 0,0
17.04.2019 14:00:00 15,4 6,1 20,1 7,9 7,6 16 8 35 19 S 20 50 0,0
17.04.2019 13:00:00 15,3 4,3 19,3 7,8 7,6 17 9 32 17 SSE 20 60 0,0
17.04.2019 12:00:00 12,9 5,6 17,0 7,9 7,6 15 8 29 15 ESE 20 60 0,0
17.04.2019 11:00:00 9,6 6,3 13,5 7,9 7,6 7 4 15 8 E 19 60 0,0
17.04.2019 10:00:00 5,3 4,7 7,1 8,0 7,6 3 1 7 4 N 20 31 0,0
17.04.2019 09:00:00 3,4 2,8 4,3 8,1 7,6 0 0 6 3 N 3,1 15 0,0
17.04.2019 08:00:00 2,2 1,5 0,8 8,2 7,6 5 3 16 8 N 0,1 17 0,0
17.04.2019 07:00:00 1,0 0,3 -2,3 8,3 7,6 2 1 6 3 WSW 20 0 0,0
17.04.2019 06:00:00 0,0 -0,9 -2,2 8,4 7,6 3 2 5 3 SSW 20 0 0,0
17.04.2019 05:00:00 0,5 -0,5 -0,9 8,4 7,6 5 3 6 3 WSW 20 0 0,0
17.04.2019 04:00:00 1,6 0,4 -0,9 8,5 7,6 4 2 8 5 W 20 0 0,0
17.04.2019 03:00:00 1,7 0,4 -0,1 8,6 7,6 6 3 8 5 SW 20 0 0,0
17.04.2019 02:00:00 2,7 1,1 -0,1 8,6 7,6 0 0 9 5 N 20 0 0,0
17.04.2019 01:00:00 5,2 2,7 3,8 8,6 7,6 5 3 14 8 WSW 20 0 0,0
17.04.2019 00:00:00 4,4 2,3 3,3 8,6 7,6 0 0 14 7 N 20 0 0,0
16.04.2019 23:00:00 5,9 2,9 4,2 8,5 7,6 7 4 11 6 WSW 20 0 0,0
16.04.2019 22:00:00 6,8 3,2 3,1 8,5 7,6 5 3 11 6 W 20 0 0,0
16.04.2019 21:00:00 7,9 3,4 5,5 8,4 7,6 0 0 13 7 N 20 1 0,0
16.04.2019 20:00:00 11,0 3,8 10,6 8,3 7,6 8 5 16 8 WNW 20 33 0,0
16.04.2019 19:00:00 13,1 4,3 14,0 8,2 7,6 8 5 27 14 WSW 20 58 0,0
16.04.2019 18:00:00 12,0 4,2 12,8 8,1 7,6 11 6 25 13 SW 20 4 0,0
16.04.2019 17:00:00 11,6 4,6 13,1 8,0 7,6 16 9 28 15 SW 20 0 0,0
16.04.2019 16:00:00 12,0 4,7 14,3 7,9 7,6 19 10 32 18 SW 20 20 0,0
16.04.2019 15:00:00 11,2 6,1 14,3 7,9 7,6 14 8 30 16 SW 20 22 0,0
16.04.2019 14:00:00 10,5 6,1 11,1 7,9 7,6 13 7 26 14 SSW 20 0 0,0
16.04.2019 13:00:00 8,4 5,0 8,6 7,9 7,6 6 4 16 9 SE 20 0 0,0
16.04.2019 12:00:00 7,2 4,5 7,5 7,9 7,6 5 3 16 9 NNW 20 0 0,0
16.04.2019 11:00:00 6,9 4,6 6,7 7,9 7,6 5 3 17 9 S 20 0 0,4
16.04.2019 10:00:00 5,9 4,1 5,6 7,9 7,6 6 3 21 12 E 14 0 1,4
16.04.2019 09:00:00 5,6 3,4 4,9 7,9 7,6 6 3 17 9 SSE 20 0 0,2
16.04.2019 08:00:00 5,4 2,7 4,8 8,0 7,6 5 3 19 10 ENE 20 0 0,4
16.04.2019 07:00:00 5,8 1,9 4,8 8,0 7,6 12 7 27 15 S 20 0 0,2
16.04.2019 06:00:00 7,0 1,5 5,3 8,0 7,6 9 5 27 15 SE 20 0 0,0
16.04.2019 05:00:00 7,2 1,5 5,4 8,0 7,6 10 5 23 12 SSE 20 0 0,0
16.04.2019 04:00:00 7,7 0,9 6,7 8,1 7,6 5 3 20 11 S 20 0 0,0
16.04.2019 03:00:00 8,3 -0,2 7,7 8,0 7,6 9 5 18 10 SE 20 0 0,0
16.04.2019 02:00:00 9,0 -1,2 7,8 8,0 7,6 9 5 53 29 SSE 20 0 0,0
16.04.2019 01:00:00 9,0 -0,9 8,7 8,0 7,6 14 8 42 23 S 20 0 0,0
16.04.2019 00:00:00 9,0 -0,9 8,8 8,0 7,6 24 13 48 26 SSE 20 0 0,0
15.04.2019 23:00:00 9,0 -0,9 8,5 8,0 7,6 23 12 53 29 SSE 20 0 0,0
15.04.2019 22:00:00 8,9 -1,0 7,9 7,9 7,6 15 8 32 18 SSE 20 0 0,0
15.04.2019 21:00:00 9,1 -1,3 8,4 7,8 7,6 14 8 35 19 SSE 20 0 0,0
15.04.2019 20:00:00 10,0 -3,3 9,6 7,7 7,6 18 10 42 23 S 20 0 0,0
15.04.2019 19:00:00 10,6 -0,3 11,7 7,5 7,6 16 9 48 26 S 20 20 0,0
15.04.2019 18:00:00 10,6 0,6 12,0 7,4 7,6 26 14 48 26 S 20 0 0,0
15.04.2019 17:00:00 12,4 -1,9 15,1 7,2 7,6 24 13 50 27 SSE 20 35 0,0
15.04.2019 16:00:00 13,7 -4,0 18,5 7,1 7,6 25 14 46 25 SSE 20 60 0,0
15.04.2019 15:00:00 14,4 -5,9 19,6 7,0 7,6 21 11 39 21 SSE 20 60 0,0
15.04.2019 14:00:00 13,8 -9,5 17,9 6,9 7,6 22 12 37 20 SSE 20 60 0,0
15.04.2019 13:00:00 10,5 -3,6 15,5 7,0 7,6 8 4 22 12 E 20 60 0,0
15.04.2019 12:00:00 8,4 -3,5 13,8 7,0 7,6 5 3 13 7 ESE 20 60 0,0
15.04.2019 11:00:00 5,0 -4,1 11,6 7,1 7,6 5 3 13 7 SE 19 60 0,0
15.04.2019 10:00:00 2,4 -5,3 7,3 7,3 7,6 4 2 8 4 E 19 60 0,0
15.04.2019 09:00:00 0,4 -5,4 1,4 7,4 7,6 2 1 5 3 NE 19 60 0,0
15.04.2019 08:00:00 -3,8 -7,1 -8,4 7,6 7,6 0 0 13 7 N 15 37 0,0
15.04.2019 07:00:00 -6,0 -8,4 -9,0 7,7 7,6 0 0 8 5 N 15 0 0,0
15.04.2019 06:00:00 -6,0 -8,7 -8,2 7,8 7,6 4 2 6 3 SW 13 0 0,0
15.04.2019 05:00:00 -5,4 -8,6 -8,5 7,9 7,6 4 2 6 3 W 17 0 0,0
15.04.2019 04:00:00 -4,7 -8,1 -7,7 8,0 7,6 3 2 8 5 SW 16 0 0,0
15.04.2019 03:00:00 -4,3 -8,1 -6,5 8,1 7,6 5 3 9 5 SW 20 0 0,0
15.04.2019 02:00:00 -3,2 -7,2 -5,5 8,1 7,6 5 3 10 5 WSW 20 0 0,0
15.04.2019 01:00:00 -3,0 -7,2 -5,5 8,2 7,6 6 3 8 4 WSW 20 0 0,0
15.04.2019 00:00:00 -1,6 -6,9 -4,2 8,2 7,6 4 2 8 4 SW 20 0 0,0
14.04.2019 23:00:00 0,5 -6,6 -4,0 8,2 7,6 4 2 9 5 W 20 0 0,0
14.04.2019 22:00:00 1,5 -6,6 -4,1 8,1 7,6 3 2 10 5 NNW 20 0 0,0
14.04.2019 21:00:00 2,3 -7,1 -2,3 8,0 7,6 6 3 20 11 NNE 20 0 0,0
14.04.2019 20:00:00 4,7 -7,1 4,2 7,9 7,5 11 6 25 14 ENE 20 56 0,0
14.04.2019 19:00:00 6,8 -6,2 9,4 7,7 7,5 14 7 23 13 E 20 60 0,0
14.04.2019 18:00:00 7,8 -7,9 13,0 7,5 7,5 4 2 25 13 NNE 20 60 0,0
14.04.2019 17:00:00 8,0 -6,2 12,1 7,3 7,6 15 8 27 15 ENE 20 60 0,0
14.04.2019 16:00:00 8,2 -6,8 12,6 7,2 7,6 13 7 32 17 ENE 20 49 0,0
14.04.2019 15:00:00 7,9 -6,3 15,8 7,1 7,5 15 8 36 19 N 20 60 0,0
14.04.2019 14:00:00 7,1 -8,5 15,0 7,0 7,5 16 8 26 14 NNW 20 60 0,0

tt = Température de l'air
td = dewpoint
tt 5cm = Température de l'air 5cm
tt -20cm = Température de l'air -20cm
tt -100cm = Température de l'air -100cm
ff = Vitesse du vent
fx = gusts
dd = Direction du vent
vv = visibility
sd = Ensoleillement
rr = Quantités de précipitations

stations d'obs. à proximité